Time;durP1;ratioP1;P1;durP2;ratioP2;P2;SDS_P1;SDS_P2;PMS_P1;PMS_P2;Temp;Humidity;BMP_temperature;BMP_pressure;BME280_temperature;BME280_humidity;BME280_pressure;Samples;Min_cycle;Max_cycle;Signal;HPM_P1;HPM_P2
2022/10/12 00:02:43;;;;;;;22.13;14.40;;;;;;;;;;4967426;28;20444;-56
2022/10/12 00:05:09;;;;;;;19.80;12.93;;;;;;;;;;4958539;28;20924;-57
2022/10/12 00:07:35;;;;;;;22.20;14.40;;;;;;;;;;4966900;28;20465;-56
2022/10/12 00:10:01;;;;;;;14.30;12.03;;;;;;;;;;4964976;28;20437;-57
2022/10/12 00:12:27;;;;;;;21.00;11.97;;;;;;;;;;4966406;28;21937;-57
2022/10/12 00:14:53;;;;;;;21.93;12.80;;;;;;;;;;4956022;28;20619;-57
2022/10/12 00:17:19;;;;;;;19.27;12.13;;;;;;;;;;4975134;28;20516;-56
2022/10/12 00:19:45;;;;;;;23.23;14.00;;;;;;;;;;4975119;28;20463;-56
2022/10/12 00:22:11;;;;;;;23.70;13.10;;;;;;;;;;4970990;28;20460;-57
2022/10/12 00:24:37;;;;;;;20.90;12.37;;;;;;;;;;4955436;28;20453;-57
2022/10/12 00:27:03;;;;;;;23.47;13.07;;;;;;;;;;4981881;28;20436;-57
2022/10/12 00:29:29;;;;;;;21.37;13.87;;;;;;;;;;4979223;28;20457;-56
2022/10/12 00:31:55;;;;;;;22.43;13.50;;;;;;;;;;4975824;28;20528;-56
2022/10/12 00:34:21;;;;;;;19.00;12.73;;;;;;;;;;4951164;28;20506;-56
2022/10/12 00:36:47;;;;;;;18.10;12.83;;;;;;;;;;4971514;28;20442;-61
2022/10/12 00:39:13;;;;;;;21.63;12.77;;;;;;;;;;4941922;28;20442;-56
2022/10/12 00:41:40;;;;;;;17.53;12.97;;;;;;;;;;4976072;28;20507;-56
2022/10/12 00:44:25;;;;;;;23.20;12.37;;;;;;;;;;4954040;28;20453;-56
2022/10/12 00:46:51;;;;;;;20.13;13.10;;;;;;;;;;4974279;28;20446;-56
2022/10/12 00:49:20;;;;;;;18.90;13.80;;;;;;;;;;4984156;28;20470;-56
2022/10/12 00:51:48;;;;;;;19.17;14.60;;;;;;;;;;4972531;28;20460;-56
2022/10/12 00:54:15;;;;;;;23.63;13.00;;;;;;;;;;4977382;28;20573;-57
2022/10/12 00:56:41;;;;;;;25.73;14.30;;;;;;;;;;4975348;28;20433;-55
2022/10/12 00:59:08;;;;;;;16.90;11.80;;;;;;;;;;4974414;28;20520;-56
2022/10/12 01:01:34;;;;;;;18.10;11.50;;;;;;;;;;4974442;28;20434;-56
2022/10/12 01:04:00;;;;;;;22.50;14.37;;;;;;;;;;4954523;28;20433;-56
2022/10/12 01:06:26;;;;;;;24.23;13.60;;;;;;;;;;4963530;28;21266;-56
2022/10/12 01:08:53;;;;;;;19.30;12.60;;;;;;;;;;4935775;28;20469;-54
2022/10/12 01:11:19;;;;;;;28.20;12.40;;;;;;;;;;5006349;28;20457;-56
2022/10/12 01:13:45;;;;;;;17.20;11.90;;;;;;;;;;4976127;28;20432;-56
2022/10/12 01:16:17;;;;;;;20.40;13.20;;;;;;;;;;4974877;28;20484;-56
2022/10/12 01:18:45;;;;;;;24.80;11.57;;;;;;;;;;4955292;28;20453;-56
2022/10/12 01:21:14;;;;;;;19.90;12.57;;;;;;;;;;4973971;28;20428;-57
2022/10/12 01:23:40;;;;;;;19.20;13.70;;;;;;;;;;4978188;28;20477;-56
2022/10/12 01:26:12;;;;;;;20.90;12.53;;;;;;;;;;4976191;28;20441;-61
2022/10/12 01:28:43;;;;;;;21.10;13.00;;;;;;;;;;4974234;28;20437;-57
2022/10/12 01:31:28;;;;;;;18.37;13.23;;;;;;;;;;4974464;28;20924;-56
2022/10/12 01:34:09;;;;;;;22.63;13.07;;;;;;;;;;5003033;28;20477;-57
2022/10/12 01:36:34;;;;;;;22.70;13.70;;;;;;;;;;4979607;28;20819;-57
2022/10/12 01:39:04;;;;;;;18.73;12.80;;;;;;;;;;4935603;28;20456;-57
2022/10/12 01:41:46;;;;;;;19.57;12.30;;;;;;;;;;5009201;28;20450;-57
2022/10/12 01:44:19;;;;;;;15.60;11.50;;;;;;;;;;4981325;28;20448;-58
2022/10/12 01:46:45;;;;;;;24.07;12.60;;;;;;;;;;4993976;28;20499;-58
2022/10/12 01:49:12;;;;;;;18.60;12.37;;;;;;;;;;4966792;28;20476;-56
2022/10/12 01:51:57;;;;;;;22.50;13.00;;;;;;;;;;4974947;28;20444;-56
2022/10/12 01:54:23;;;;;;;17.70;11.33;;;;;;;;;;4946337;28;20690;-57
2022/10/12 01:56:57;;;;;;;21.73;14.03;;;;;;;;;;4976508;28;20480;-57
2022/10/12 01:59:23;;;;;;;19.60;13.63;;;;;;;;;;5000890;28;20443;-56
2022/10/12 02:01:54;;;;;;;24.93;13.37;;;;;;;;;;4976119;28;20433;-57
2022/10/12 02:04:33;;;;;;;27.43;14.33;;;;;;;;;;5001043;28;20504;-58
2022/10/12 02:07:03;;;;;;;19.00;13.70;;;;;;;;;;4976737;28;20456;-58
2022/10/12 02:09:30;;;;;;;19.17;13.77;;;;;;;;;;4998195;28;21069;-56
2022/10/12 02:11:58;;;;;;;20.50;12.00;;;;;;;;;;5002648;28;20690;-57
2022/10/12 02:14:25;;;;;;;25.20;13.23;;;;;;;;;;4940577;28;21061;-58
2022/10/12 02:16:53;;;;;;;23.27;12.70;;;;;;;;;;4989365;28;20512;-57
2022/10/12 02:19:20;;;;;;;19.10;13.97;;;;;;;;;;4998966;28;20938;-57
2022/10/12 02:21:46;;;;;;;17.10;12.03;;;;;;;;;;4994340;28;20441;-58
2022/10/12 02:24:12;;;;;;;25.73;14.23;;;;;;;;;;4971150;28;20456;-57
2022/10/12 02:26:40;;;;;;;25.07;14.07;;;;;;;;;;4979749;28;20463;-57
2022/10/12 02:29:06;;;;;;;20.40;13.83;;;;;;;;;;4951988;28;21010;-56
2022/10/12 02:31:37;;;;;;;23.80;13.40;;;;;;;;;;4977859;28;20558;-57
2022/10/12 02:34:03;;;;;;;18.10;11.93;;;;;;;;;;4956117;28;20443;-57
2022/10/12 02:36:35;;;;;;;18.73;13.60;;;;;;;;;;4977750;28;20559;-56
2022/10/12 02:39:03;;;;;;;22.53;13.30;;;;;;;;;;4971880;28;20429;-57
2022/10/12 02:41:30;;;;;;;25.03;14.33;;;;;;;;;;4978206;28;20482;-57
2022/10/12 02:44:07;;;;;;;22.43;13.77;;;;;;;;;;4979722;28;20930;-58
2022/10/12 02:46:33;;;;;;;24.63;12.17;;;;;;;;;;4977183;28;20997;-57
2022/10/12 02:48:59;;;;;;;19.13;13.33;;;;;;;;;;4940714;28;20461;-57
2022/10/12 02:51:25;;;;;;;23.40;14.27;;;;;;;;;;5005765;28;20441;-57
2022/10/12 02:53:52;;;;;;;21.00;13.10;;;;;;;;;;4954699;28;20483;-57
2022/10/12 02:56:18;;;;;;;20.97;13.00;;;;;;;;;;4974587;28;20488;-58
2022/10/12 02:58:44;;;;;;;19.90;13.20;;;;;;;;;;4950326;28;20441;-58
2022/10/12 03:01:10;;;;;;;21.13;13.60;;;;;;;;;;5002701;28;20452;-58
2022/10/12 03:03:36;;;;;;;18.00;13.10;;;;;;;;;;4950480;28;20453;-57
2022/10/12 03:06:02;;;;;;;19.50;13.30;;;;;;;;;;4979126;28;20432;-56
2022/10/12 03:08:28;;;;;;;18.37;12.73;;;;;;;;;;4973750;28;20449;-56
2022/10/12 03:10:54;;;;;;;23.83;14.33;;;;;;;;;;4973822;28;20437;-58
2022/10/12 03:13:20;;;;;;;18.10;13.30;;;;;;;;;;4976108;28;20769;-58
2022/10/12 03:15:46;;;;;;;19.57;12.90;;;;;;;;;;4974769;28;20508;-58
2022/10/12 03:18:11;;;;;;;21.70;12.50;;;;;;;;;;4942747;28;20437;-58
2022/10/12 03:20:37;;;;;;;19.27;13.10;;;;;;;;;;4975851;28;20444;-57
2022/10/12 03:23:03;;;;;;;16.70;12.23;;;;;;;;;;4958008;28;20437;-57
2022/10/12 03:25:30;;;;;;;18.63;12.97;;;;;;;;;;5008645;28;20533;-57
2022/10/12 03:27:55;;;;;;;16.33;13.00;;;;;;;;;;4974147;28;20424;-56
2022/10/12 03:30:21;;;;;;;18.23;11.87;;;;;;;;;;4977150;28;20442;-58
2022/10/12 03:32:48;;;;;;;19.90;13.37;;;;;;;;;;4955716;28;20469;-56
2022/10/12 03:35:14;;;;;;;20.47;13.47;;;;;;;;;;4979546;28;20480;-57
2022/10/12 03:37:40;;;;;;;20.97;12.50;;;;;;;;;;4973366;28;20443;-58
2022/10/12 03:40:06;;;;;;;22.43;12.90;;;;;;;;;;4974698;28;21071;-56
2022/10/12 03:42:32;;;;;;;24.73;13.83;;;;;;;;;;4961255;28;20824;-57
2022/10/12 03:44:58;;;;;;;23.37;14.13;;;;;;;;;;4966063;28;20716;-57
2022/10/12 03:47:24;;;;;;;20.73;14.40;;;;;;;;;;4973888;28;20582;-56
2022/10/12 03:49:50;;;;;;;20.73;15.57;;;;;;;;;;4978515;28;20443;-58
2022/10/12 03:52:26;;;;;;;23.60;16.40;;;;;;;;;;4975124;28;20520;-56
2022/10/12 03:54:53;;;;;;;22.13;15.23;;;;;;;;;;4960814;28;21094;-56
2022/10/12 03:57:19;;;;;;;24.70;15.23;;;;;;;;;;4970061;28;20536;-56
2022/10/12 03:59:45;;;;;;;27.33;14.80;;;;;;;;;;4980154;28;20442;-57
2022/10/12 04:02:11;;;;;;;20.40;14.07;;;;;;;;;;4958238;28;20443;-56
2022/10/12 04:04:37;;;;;;;21.70;15.73;;;;;;;;;;4979584;28;21028;-56
2022/10/12 04:07:03;;;;;;;22.47;15.33;;;;;;;;;;4955585;28;20447;-56
2022/10/12 04:09:29;;;;;;;21.40;13.50;;;;;;;;;;4977538;28;20437;-56
2022/10/12 04:11:55;;;;;;;18.83;14.90;;;;;;;;;;4974872;28;20496;-60
2022/10/12 04:14:21;;;;;;;19.40;14.10;;;;;;;;;;4976438;28;20446;-58
2022/10/12 04:16:47;;;;;;;16.30;12.23;;;;;;;;;;4968798;28;20193;-55
2022/10/12 04:19:13;;;;;;;20.80;15.40;;;;;;;;;;4984330;28;20535;-56
2022/10/12 04:21:39;;;;;;;22.00;13.60;;;;;;;;;;4957121;28;20512;-57
2022/10/12 04:24:05;;;;;;;19.20;13.67;;;;;;;;;;4983039;28;20552;-57
2022/10/12 04:26:31;;;;;;;23.43;14.40;;;;;;;;;;4940334;28;20450;-57
2022/10/12 04:28:57;;;;;;;17.07;12.40;;;;;;;;;;4978036;28;21256;-57
2022/10/12 04:31:23;;;;;;;17.03;14.30;;;;;;;;;;4942720;28;20614;-57
2022/10/12 04:33:55;;;;;;;13.37;11.43;;;;;;;;;;4979968;28;23583;-57
2022/10/12 04:36:21;;;;;;;25.53;13.30;;;;;;;;;;4973426;28;20476;-57
2022/10/12 04:38:47;;;;;;;26.40;14.57;;;;;;;;;;4988361;28;20451;-57
2022/10/12 04:41:13;;;;;;;20.33;13.87;;;;;;;;;;4956661;28;20479;-56
2022/10/12 04:43:39;;;;;;;20.40;13.57;;;;;;;;;;4987475;28;20439;-55
2022/10/12 04:46:05;;;;;;;21.57;14.50;;;;;;;;;;4954599;28;20531;-55
2022/10/12 04:48:31;;;;;;;20.57;13.93;;;;;;;;;;4958554;28;20516;-58
2022/10/12 04:50:57;;;;;;;75.47;17.07;;;;;;;;;;4979762;28;20881;-56
2022/10/12 04:53:23;;;;;;;16.77;12.73;;;;;;;;;;4954653;28;20438;-55
2022/10/12 04:55:49;;;;;;;20.67;13.73;;;;;;;;;;4980896;28;20485;-56
2022/10/12 04:58:15;;;;;;;16.70;12.70;;;;;;;;;;4939658;28;20495;-57
2022/10/12 05:00:41;;;;;;;17.47;12.97;;;;;;;;;;4978396;28;20452;-56
2022/10/12 05:03:07;;;;;;;17.07;13.13;;;;;;;;;;4957415;28;20445;-56
2022/10/12 05:05:36;;;;;;;25.50;13.97;;;;;;;;;;4975464;28;21100;-56
2022/10/12 05:08:02;;;;;;;20.10;14.40;;;;;;;;;;4974014;28;20976;-56
2022/10/12 05:10:28;;;;;;;18.80;14.27;;;;;;;;;;4982006;28;20436;-55
2022/10/12 05:12:54;;;;;;;15.70;12.30;;;;;;;;;;4953571;28;20452;-57
2022/10/12 05:15:20;;;;;;;22.70;14.47;;;;;;;;;;4979225;28;20479;-56
2022/10/12 05:17:46;;;;;;;16.90;12.90;;;;;;;;;;4976909;28;20544;-56
2022/10/12 05:20:12;;;;;;;21.57;13.20;;;;;;;;;;4977216;28;20501;-56
2022/10/12 05:22:38;;;;;;;18.93;13.07;;;;;;;;;;4954219;28;20445;-55
2022/10/12 05:25:05;;;;;;;21.97;13.70;;;;;;;;;;4979384;28;20438;-55
2022/10/12 05:27:31;;;;;;;19.37;13.00;;;;;;;;;;4943080;28;20454;-58
2022/10/12 05:29:57;;;;;;;15.63;12.27;;;;;;;;;;4978064;28;20444;-58
2022/10/12 05:32:23;;;;;;;16.30;12.37;;;;;;;;;;4975558;28;20508;-55
2022/10/12 05:34:49;;;;;;;23.60;14.30;;;;;;;;;;4983528;28;20468;-57
2022/10/12 05:37:15;;;;;;;18.80;13.30;;;;;;;;;;4975659;28;21137;-57
2022/10/12 05:39:41;;;;;;;20.80;12.83;;;;;;;;;;4984045;28;20449;-57
2022/10/12 05:42:07;;;;;;;16.20;13.00;;;;;;;;;;4951522;28;21061;-55
2022/10/12 05:44:33;;;;;;;16.20;13.00;;;;;;;;;;4983293;28;20444;-57
2022/10/12 05:46:59;;;;;;;21.20;12.70;;;;;;;;;;4977814;28;21091;-57
2022/10/12 05:49:25;;;;;;;20.57;12.43;;;;;;;;;;4955141;28;21603;-55
2022/10/12 05:51:51;;;;;;;15.03;12.43;;;;;;;;;;4983569;28;20446;-55
2022/10/12 05:54:17;;;;;;;15.80;12.40;;;;;;;;;;4956484;28;20849;-55
2022/10/12 05:56:43;;;;;;;16.67;12.60;;;;;;;;;;4980372;28;20532;-54
2022/10/12 05:59:09;;;;;;;20.90;13.33;;;;;;;;;;4928473;28;20588;-56
2022/10/12 06:01:35;;;;;;;18.43;14.20;;;;;;;;;;4974980;28;20471;-56
2022/10/12 06:04:01;;;;;;;18.90;12.20;;;;;;;;;;4953213;28;20447;-57
2022/10/12 06:06:27;;;;;;;17.40;13.70;;;;;;;;;;4965063;28;20721;-57
2022/10/12 06:08:53;;;;;;;21.20;14.00;;;;;;;;;;4961148;28;20467;-57
2022/10/12 06:11:20;;;;;;;18.63;12.90;;;;;;;;;;4974553;28;20440;-58
2022/10/12 06:13:46;;;;;;;17.03;12.50;;;;;;;;;;4933340;28;20441;-57
2022/10/12 06:16:12;;;;;;;17.43;12.07;;;;;;;;;;4976200;28;20484;-57
2022/10/12 06:18:38;;;;;;;15.50;11.73;;;;;;;;;;4960458;28;20445;-57
2022/10/12 06:21:04;;;;;;;19.40;13.13;;;;;;;;;;4984256;28;20441;-57
2022/10/12 06:23:30;;;;;;;17.43;12.27;;;;;;;;;;4953829;28;20458;-53
2022/10/12 06:25:56;;;;;;;19.60;13.47;;;;;;;;;;4980724;28;20434;-55
2022/10/12 06:28:22;;;;;;;19.13;13.60;;;;;;;;;;4940157;28;20476;-56
2022/10/12 06:31:06;;;;;;;16.47;13.67;;;;;;;;;;4977208;28;20464;-56
2022/10/12 06:33:32;;;;;;;19.20;13.77;;;;;;;;;;4981509;28;20438;-56
2022/10/12 06:35:58;;;;;;;20.20;12.67;;;;;;;;;;4982853;28;20481;-56
2022/10/12 06:38:24;;;;;;;15.97;12.97;;;;;;;;;;4981552;28;20498;-56
2022/10/12 06:40:52;;;;;;;19.53;13.07;;;;;;;;;;4984430;28;20469;-58
2022/10/12 06:43:18;;;;;;;16.70;13.20;;;;;;;;;;4954287;28;20884;-56
2022/10/12 06:45:43;;;;;;;21.93;12.37;;;;;;;;;;4982864;28;20445;-56
2022/10/12 06:48:09;;;;;;;18.27;13.23;;;;;;;;;;4967228;28;20456;-55
2022/10/12 06:50:36;;;;;;;13.40;11.00;;;;;;;;;;5014883;28;20433;-56
2022/10/12 06:53:01;;;;;;;20.60;14.70;;;;;;;;;;4979164;28;20639;-56
2022/10/12 06:55:27;;;;;;;23.47;15.30;;;;;;;;;;4986351;28;20503;-57
2022/10/12 06:57:54;;;;;;;20.47;13.67;;;;;;;;;;4977440;28;20436;-55
2022/10/12 07:00:20;;;;;;;24.20;15.83;;;;;;;;;;4975715;28;20457;-56
2022/10/12 07:03:14;;;;;;;20.77;13.90;;;;;;;;;;4956869;28;20443;-55
2022/10/12 07:05:40;;;;;;;20.90;13.23;;;;;;;;;;4973556;28;20426;-55
2022/10/12 07:08:05;;;;;;;16.63;12.67;;;;;;;;;;4977756;28;20565;-57
2022/10/12 07:10:32;;;;;;;20.77;12.97;;;;;;;;;;4967729;28;20881;-57
2022/10/12 07:12:58;;;;;;;17.90;13.93;;;;;;;;;;4978973;28;20472;-54
2022/10/12 07:15:24;;;;;;;19.17;13.50;;;;;;;;;;4951253;28;20800;-56
2022/10/12 07:17:50;;;;;;;21.43;13.93;;;;;;;;;;4976400;28;20435;-56
2022/10/12 07:20:16;;;;;;;21.80;13.60;;;;;;;;;;4958681;28;20442;-56
2022/10/12 07:22:43;;;;;;;29.43;15.17;;;;;;;;;;4971564;28;20426;-55
2022/10/12 07:25:09;;;;;;;19.80;13.57;;;;;;;;;;4946317;28;20456;-55
2022/10/12 07:27:35;;;;;;;21.10;13.60;;;;;;;;;;4981364;28;20445;-58
2022/10/12 07:30:01;;;;;;;20.23;14.50;;;;;;;;;;4977745;28;20451;-56
2022/10/12 07:32:27;;;;;;;25.23;13.73;;;;;;;;;;4991685;28;20483;-56
2022/10/12 07:34:53;;;;;;;21.47;14.50;;;;;;;;;;4936760;28;20858;-55
2022/10/12 07:37:19;;;;;;;21.33;15.57;;;;;;;;;;4982161;28;20429;-55
2022/10/12 07:39:45;;;;;;;27.13;16.30;;;;;;;;;;4977122;28;20448;-56
2022/10/12 07:42:11;;;;;;;23.17;15.50;;;;;;;;;;4977172;28;20536;-56
2022/10/12 07:44:37;;;;;;;19.63;15.07;;;;;;;;;;4958645;28;21298;-56
2022/10/12 07:47:03;;;;;;;24.07;15.13;;;;;;;;;;4948567;28;20506;-55
2022/10/12 07:49:29;;;;;;;24.13;15.33;;;;;;;;;;4983585;28;20444;-57
2022/10/12 07:51:55;;;;;;;22.40;15.10;;;;;;;;;;4965340;28;20440;-56
2022/10/12 07:54:21;;;;;;;27.10;18.43;;;;;;;;;;4981616;28;20832;-55
2022/10/12 07:56:47;;;;;;;23.23;16.97;;;;;;;;;;4957764;28;20450;-55
2022/10/12 07:59:13;;;;;;;24.00;16.33;;;;;;;;;;4983074;28;20444;-57
2022/10/12 08:01:39;;;;;;;26.90;17.47;;;;;;;;;;4976984;28;20432;-57
2022/10/12 08:04:05;;;;;;;26.57;16.47;;;;;;;;;;4982997;28;20601;-57
2022/10/12 08:06:32;;;;;;;28.27;17.37;;;;;;;;;;4934604;28;21651;-56
2022/10/12 08:08:58;;;;;;;22.23;14.43;;;;;;;;;;4981660;28;21204;-56
2022/10/12 08:11:24;;;;;;;28.87;17.30;;;;;;;;;;4974535;28;20488;-57
2022/10/12 08:13:50;;;;;;;24.27;16.33;;;;;;;;;;4974875;28;20498;-57
2022/10/12 08:16:17;;;;;;;20.70;16.20;;;;;;;;;;4964162;28;21280;-57
2022/10/12 08:18:43;;;;;;;22.27;15.00;;;;;;;;;;4943675;28;20448;-56
2022/10/12 08:21:09;;;;;;;20.63;14.47;;;;;;;;;;4979171;28;20440;-56
2022/10/12 08:23:35;;;;;;;20.00;14.70;;;;;;;;;;4965903;28;20476;-55
2022/10/12 08:26:01;;;;;;;27.43;13.57;;;;;;;;;;4979394;28;20440;-57
2022/10/12 08:28:27;;;;;;;19.23;14.57;;;;;;;;;;4979742;28;20445;-57
2022/10/12 08:30:53;;;;;;;20.50;14.03;;;;;;;;;;5003823;28;20444;-57
2022/10/12 08:33:19;;;;;;;21.80;14.83;;;;;;;;;;4970895;28;20526;-55
2022/10/12 08:35:46;;;;;;;19.93;14.20;;;;;;;;;;4965179;28;20489;-57
2022/10/12 08:38:20;;;;;;;18.93;13.73;;;;;;;;;;4965843;28;20441;-58
2022/10/12 08:40:47;;;;;;;22.83;13.30;;;;;;;;;;4959163;28;20460;-58
2022/10/12 08:43:24;;;;;;;24.07;16.00;;;;;;;;;;4960399;28;20442;-58
2022/10/12 08:45:50;;;;;;;17.33;12.00;;;;;;;;;;5006726;28;20436;-57
2022/10/12 08:48:18;;;;;;;20.17;13.90;;;;;;;;;;4969056;28;20475;-56
2022/10/12 08:51:01;;;;;;;20.00;12.67;;;;;;;;;;4959837;28;20474;-54
2022/10/12 08:53:46;;;;;;;21.70;14.40;;;;;;;;;;4981461;28;20452;-56
2022/10/12 08:56:15;;;;;;;20.00;13.90;;;;;;;;;;5004130;28;20523;-58
2022/10/12 08:58:41;;;;;;;22.37;13.10;;;;;;;;;;4996850;28;20456;-57
2022/10/12 09:01:13;;;;;;;22.93;13.97;;;;;;;;;;4974921;28;20444;-57
2022/10/12 09:03:42;;;;;;;29.00;13.27;;;;;;;;;;4959107;28;20450;-56
2022/10/12 09:06:17;;;;;;;21.67;13.73;;;;;;;;;;4969680;28;20449;-57
2022/10/12 09:09:02;;;;;;;18.77;13.47;;;;;;;;;;4956446;28;20451;-55
2022/10/12 09:11:32;;;;;;;19.60;13.07;;;;;;;;;;4980702;28;20441;-57
2022/10/12 09:14:11;;;;;;;17.27;14.00;;;;;;;;;;5009684;28;21167;-58
2022/10/12 09:16:39;;;;;;;19.53;14.40;;;;;;;;;;5011483;28;20642;-56
2022/10/12 09:19:13;;;;;;;18.00;11.60;;;;;;;;;;4982243;28;21066;-57
2022/10/12 09:21:39;;;;;;;18.80;13.70;;;;;;;;;;4970152;28;20438;-56
2022/10/12 09:24:06;;;;;;;18.30;12.20;;;;;;;;;;4968495;28;20996;-56
2022/10/12 09:26:35;;;;;;;13.53;9.60;;;;;;;;;;4961045;28;20449;-54
2022/10/12 09:29:02;;;;;;;18.57;12.47;;;;;;;;;;4975528;28;20442;-56
2022/10/12 09:31:51;;;;;;;20.67;11.30;;;;;;;;;;4962360;28;20946;-56
2022/10/12 09:34:17;;;;;;;21.07;11.63;;;;;;;;;;5008318;28;20437;-57
2022/10/12 09:36:43;;;;;;;12.30;9.90;;;;;;;;;;4946311;28;21207;-58
2022/10/12 09:39:16;;;;;;;19.37;10.90;;;;;;;;;;4974260;28;20851;-57
2022/10/12 09:41:43;;;;;;;17.00;11.37;;;;;;;;;;4965374;28;20466;-57
2022/10/12 09:44:21;;;;;;;22.50;10.77;;;;;;;;;;4975473;28;20447;-57
2022/10/12 09:46:49;;;;;;;15.47;10.57;;;;;;;;;;4979280;28;20439;-56
2022/10/12 09:49:15;;;;;;;21.50;11.00;;;;;;;;;;5010519;28;20958;-57
2022/10/12 09:51:41;;;;;;;14.97;9.90;;;;;;;;;;4952520;28;20515;-55
2022/10/12 09:54:07;;;;;;;14.63;9.63;;;;;;;;;;4973557;28;20433;-58
2022/10/12 09:56:43;;;;;;;15.60;9.40;;;;;;;;;;4964394;28;20519;-55
2022/10/12 09:59:41;;;;;;;14.50;9.90;;;;;;;;;;4975948;28;20477;-56
2022/10/12 10:02:07;;;;;;;17.67;11.00;;;;;;;;;;4962719;28;20438;-56
2022/10/12 10:04:33;;;;;;;14.90;10.23;;;;;;;;;;4979078;28;20434;-56
2022/10/12 10:07:32;;;;;;;16.30;10.83;;;;;;;;;;4956492;28;25716;-56
2022/10/12 10:10:07;;;;;;;15.70;9.80;;;;;;;;;;4977210;28;20471;-57
2022/10/12 10:12:33;;;;;;;20.00;10.90;;;;;;;;;;4938691;28;20494;-57
2022/10/12 10:14:59;;;;;;;15.83;9.13;;;;;;;;;;4990775;28;20599;-58
2022/10/12 10:17:26;;;;;;;17.43;10.63;;;;;;;;;;4931501;28;20950;-56
2022/10/12 10:19:52;;;;;;;17.80;10.73;;;;;;;;;;4974545;28;20512;-57
2022/10/12 10:22:19;;;;;;;16.20;10.60;;;;;;;;;;4961631;28;20436;-57
2022/10/12 10:24:49;;;;;;;16.50;9.83;;;;;;;;;;4980356;28;20449;-57
2022/10/12 10:27:27;;;;;;;19.00;10.70;;;;;;;;;;4949130;28;20456;-57
2022/10/12 10:29:54;;;;;;;17.90;10.17;;;;;;;;;;4980962;28;20992;-57
2022/10/12 10:32:28;;;;;;;16.70;9.70;;;;;;;;;;5006687;28;20445;-57
2022/10/12 10:35:03;;;;;;;18.13;10.20;;;;;;;;;;4980909;28;20546;-57
2022/10/12 10:37:29;;;;;;;13.20;9.00;;;;;;;;;;4975894;28;20450;-57
2022/10/12 10:39:56;;;;;;;13.70;9.50;;;;;;;;;;4976327;28;20430;-57
2022/10/12 10:42:24;;;;;;;12.13;9.03;;;;;;;;;;4951166;28;20461;-57
2022/10/12 10:44:50;;;;;;;14.87;9.87;;;;;;;;;;5010151;28;20432;-58
2022/10/12 10:47:16;;;;;;;16.77;8.23;;;;;;;;;;4951547;28;20902;-58
2022/10/12 10:49:43;;;;;;;13.27;9.47;;;;;;;;;;4982865;28;20422;-58
2022/10/12 10:52:32;;;;;;;15.47;10.00;;;;;;;;;;4972629;28;21060;-56
2022/10/12 10:55:05;;;;;;;13.00;9.80;;;;;;;;;;4982097;28;20484;-56
2022/10/12 10:57:31;;;;;;;14.77;9.50;;;;;;;;;;4951040;28;20483;-55
2022/10/12 10:59:57;;;;;;;14.77;8.20;;;;;;;;;;4981760;28;20468;-54
2022/10/12 11:02:33;;;;;;;14.53;9.17;;;;;;;;;;4953144;28;23483;-57
2022/10/12 11:05:17;;;;;;;16.13;10.53;;;;;;;;;;4941083;28;20942;-57
2022/10/12 11:07:48;;;;;;;13.60;8.53;;;;;;;;;;4977686;28;20908;-55
2022/10/12 11:10:21;;;;;;;9.97;7.60;;;;;;;;;;5005263;28;20444;-58
2022/10/12 11:12:48;;;;;;;10.20;8.70;;;;;;;;;;5008261;28;20434;-57
2022/10/12 11:15:20;;;;;;;12.17;7.53;;;;;;;;;;5005585;28;20572;-57
2022/10/12 11:17:46;;;;;;;14.47;9.40;;;;;;;;;;5006106;28;20486;-55
2022/10/12 11:20:24;;;;;;;11.50;8.53;;;;;;;;;;4968331;28;20448;-56
2022/10/12 11:22:54;;;;;;;9.90;8.00;;;;;;;;;;5005887;28;20937;-58
2022/10/12 11:25:24;;;;;;;15.33;8.70;;;;;;;;;;4978264;28;20449;-55
2022/10/12 11:27:50;;;;;;;11.30;8.90;;;;;;;;;;4969823;28;20460;-57
2022/10/12 11:30:17;;;;;;;13.30;8.27;;;;;;;;;;4983743;28;20433;-58
2022/10/12 11:32:46;;;;;;;11.53;8.53;;;;;;;;;;4972376;28;20449;-58
2022/10/12 11:35:25;;;;;;;14.13;7.90;;;;;;;;;;4936197;28;20504;-57
2022/10/12 11:37:52;;;;;;;13.27;7.83;;;;;;;;;;4974741;28;20795;-56
2022/10/12 11:40:44;;;;;;;12.17;9.17;;;;;;;;;;4954225;28;20448;-58
2022/10/12 11:43:12;;;;;;;13.10;8.60;;;;;;;;;;4960501;28;20433;-58
2022/10/12 11:45:45;;;;;;;14.13;8.37;;;;;;;;;;5002326;28;20969;-58
2022/10/12 11:48:13;;;;;;;15.37;8.90;;;;;;;;;;4954328;28;20856;-56
2022/10/12 11:50:40;;;;;;;13.23;8.43;;;;;;;;;;4973366;28;20440;-58
2022/10/12 11:53:11;;;;;;;10.37;7.73;;;;;;;;;;4949071;28;20447;-57
2022/10/12 11:55:57;;;;;;;12.70;9.20;;;;;;;;;;4947802;28;20483;-57
2022/10/12 11:58:30;;;;;;;13.20;8.73;;;;;;;;;;4966995;28;20996;-58
2022/10/12 12:01:08;;;;;;;8.97;7.23;;;;;;;;;;4970982;28;20444;-58
2022/10/12 12:03:38;;;;;;;9.73;7.40;;;;;;;;;;4973135;28;21033;-57
2022/10/12 12:06:24;;;;;;;12.67;8.23;;;;;;;;;;4972519;28;20428;-58
2022/10/12 12:08:50;;;;;;;14.73;8.50;;;;;;;;;;4966675;28;20438;-57
2022/10/12 12:11:20;;;;;;;13.40;9.80;;;;;;;;;;4970385;28;20441;-58
2022/10/12 12:13:46;;;;;;;11.97;8.20;;;;;;;;;;4970355;28;20451;-57
2022/10/12 12:16:13;;;;;;;12.30;8.53;;;;;;;;;;4972698;28;21032;-57
2022/10/12 12:18:57;;;;;;;12.27;7.80;;;;;;;;;;4965332;28;20491;-56
2022/10/12 12:21:23;;;;;;;13.70;10.17;;;;;;;;;;4971800;28;20441;-57
2022/10/12 12:24:06;;;;;;;14.23;8.80;;;;;;;;;;4989176;28;20452;-56
2022/10/12 12:26:32;;;;;;;14.60;8.80;;;;;;;;;;4974412;28;21017;-57
2022/10/12 12:29:11;;;;;;;13.20;7.23;;;;;;;;;;5005517;28;20436;-56
2022/10/12 12:31:37;;;;;;;12.77;8.03;;;;;;;;;;4975451;28;20791;-57
2022/10/12 12:34:05;;;;;;;11.40;7.90;;;;;;;;;;4955274;28;20483;-56
2022/10/12 12:36:31;;;;;;;11.80;8.70;;;;;;;;;;4975674;28;20488;-57
2022/10/12 12:38:57;;;;;;;14.40;9.10;;;;;;;;;;4975766;28;20429;-56
2022/10/12 12:41:46;;;;;;;11.70;7.80;;;;;;;;;;4951141;28;20201;-57
2022/10/12 12:44:35;;;;;;;9.60;7.60;;;;;;;;;;4982543;28;20441;-62
2022/10/12 12:47:01;;;;;;;13.87;9.13;;;;;;;;;;4939213;28;20481;-57
2022/10/12 12:49:27;;;;;;;11.87;9.10;;;;;;;;;;4973240;28;20985;-57
2022/10/12 12:51:53;;;;;;;13.73;7.40;;;;;;;;;;4985420;28;20636;-56
2022/10/12 12:54:20;;;;;;;8.60;6.90;;;;;;;;;;4956110;28;20568;-56
2022/10/12 12:57:05;;;;;;;10.10;6.83;;;;;;;;;;4981207;28;20531;-57
2022/10/12 12:59:37;;;;;;;11.27;7.57;;;;;;;;;;4921153;28;20449;-57
2022/10/12 13:02:12;;;;;;;10.53;6.97;;;;;;;;;;4979618;28;20444;-56
2022/10/12 13:04:47;;;;;;;12.17;7.73;;;;;;;;;;4954942;28;20516;-57
2022/10/12 13:07:19;;;;;;;9.33;7.20;;;;;;;;;;4982203;28;20893;-56
2022/10/12 13:10:04;;;;;;;11.40;7.27;;;;;;;;;;4971794;28;20973;-57
2022/10/12 13:12:42;;;;;;;14.50;7.70;;;;;;;;;;4980276;28;20436;-56
2022/10/12 13:15:21;;;;;;;11.77;8.20;;;;;;;;;;4958262;28;20478;-55
2022/10/12 13:17:47;;;;;;;10.90;7.70;;;;;;;;;;4979864;28;21592;-56
2022/10/12 13:20:20;;;;;;;9.20;7.10;;;;;;;;;;4957121;28;20470;-55
2022/10/12 13:22:46;;;;;;;9.80;7.60;;;;;;;;;;4979569;28;20183;-57
2022/10/12 13:25:19;;;;;;;10.50;7.10;;;;;;;;;;4988916;28;20480;-58
2022/10/12 13:27:46;;;;;;;10.70;7.30;;;;;;;;;;5010826;28;20433;-56
2022/10/12 13:30:41;;;;;;;7.60;6.57;;;;;;;;;;4971697;28;20449;-55
2022/10/12 13:33:11;;;;;;;13.70;6.80;;;;;;;;;;4977298;28;20452;-57
2022/10/12 13:35:40;;;;;;;12.50;6.53;;;;;;;;;;4958374;28;20481;-58
2022/10/12 13:38:15;;;;;;;7.57;5.50;;;;;;;;;;4976323;28;20939;-58
2022/10/12 13:40:42;;;;;;;8.90;6.77;;;;;;;;;;4957513;28;20495;-57
2022/10/12 13:43:26;;;;;;;9.00;5.60;;;;;;;;;;4977093;28;20446;-57
2022/10/12 13:45:52;;;;;;;9.53;6.73;;;;;;;;;;4957906;28;20437;-58
2022/10/12 13:48:18;;;;;;;9.50;6.40;;;;;;;;;;4980711;28;20449;-58
2022/10/12 13:50:55;;;;;;;7.03;5.67;;;;;;;;;;4953568;28;20535;-58
2022/10/12 13:53:21;;;;;;;8.50;6.50;;;;;;;;;;4986656;28;20433;-57
2022/10/12 13:55:51;;;;;;;7.13;4.90;;;;;;;;;;4956788;28;20636;-57
2022/10/12 13:58:27;;;;;;;8.67;5.67;;;;;;;;;;5005813;28;20188;-58
2022/10/12 14:00:53;;;;;;;9.63;6.47;;;;;;;;;;4930464;28;20461;-57
2022/10/12 14:03:23;;;;;;;7.47;6.27;;;;;;;;;;4988423;28;20437;-58
2022/10/12 14:05:49;;;;;;;11.33;5.40;;;;;;;;;;4966199;28;20461;-57
2022/10/12 14:08:16;;;;;;;9.57;5.10;;;;;;;;;;4987450;28;20444;-57
2022/10/12 14:10:43;;;;;;;18.17;7.43;;;;;;;;;;4978548;28;20449;-57
2022/10/12 14:13:12;;;;;;;7.87;5.00;;;;;;;;;;5011767;28;20448;-58
2022/10/12 14:15:39;;;;;;;7.63;5.70;;;;;;;;;;4987468;28;20500;-57
2022/10/12 14:18:25;;;;;;;9.57;6.00;;;;;;;;;;4983207;28;20453;-57
2022/10/12 14:20:51;;;;;;;8.60;6.77;;;;;;;;;;4961014;28;20509;-58
2022/10/12 14:23:18;;;;;;;6.30;4.70;;;;;;;;;;4986572;28;20503;-57
2022/10/12 14:25:52;;;;;;;12.67;5.07;;;;;;;;;;4963979;28;20502;-57
2022/10/12 14:28:29;;;;;;;7.43;5.40;;;;;;;;;;4980328;28;20440;-55
2022/10/12 14:30:55;;;;;;;6.13;4.90;;;;;;;;;;4922152;28;20764;-58
2022/10/12 14:33:22;;;;;;;6.83;5.90;;;;;;;;;;4978111;28;20450;-57